createdAt,value
2019-02-05T00:01:57.964Z,22.50
2019-02-05T00:04:27.914Z,21.97
2019-02-05T00:06:57.789Z,22.03
2019-02-05T00:09:27.582Z,22.90
2019-02-05T00:11:57.446Z,20.63
2019-02-05T00:14:27.579Z,20.97
2019-02-05T00:16:57.538Z,21.60
2019-02-05T00:19:27.399Z,21.77
2019-02-05T00:21:57.264Z,22.57
2019-02-05T00:24:27.383Z,23.07
2019-02-05T00:26:57.336Z,22.73
2019-02-05T00:29:27.571Z,21.70
2019-02-05T00:31:57.576Z,22.50
2019-02-05T00:34:27.594Z,21.80
2019-02-05T00:36:57.558Z,24.07
2019-02-05T00:39:27.830Z,23.33
2019-02-05T00:41:57.956Z,22.00
2019-02-05T00:44:27.692Z,22.63
2019-02-05T00:46:57.665Z,23.73
2019-02-05T00:49:27.610Z,22.53
2019-02-05T00:51:57.433Z,23.80
2019-02-05T00:54:27.538Z,26.90
2019-02-05T00:56:57.458Z,25.67
2019-02-05T00:59:27.519Z,25.57
2019-02-05T01:01:57.298Z,26.03
2019-02-05T01:04:27.192Z,25.90
2019-02-05T01:06:57.369Z,25.33
2019-02-05T01:09:27.546Z,26.43
2019-02-05T01:11:57.357Z,27.87
2019-02-05T01:14:27.104Z,36.80
2019-02-05T01:16:56.973Z,34.17
2019-02-05T01:19:26.718Z,33.43
2019-02-05T01:21:56.682Z,36.53
2019-02-05T01:24:26.835Z,39.03
2019-02-05T01:26:56.754Z,41.77
2019-02-05T01:29:26.832Z,41.23
2019-02-05T01:31:56.841Z,39.33
2019-02-05T01:34:26.598Z,37.90
2019-02-05T01:36:56.553Z,38.07
2019-02-05T01:39:26.668Z,37.10
2019-02-05T01:41:56.786Z,34.90
2019-02-05T01:44:26.714Z,34.37
2019-02-05T01:46:56.590Z,34.73
2019-02-05T01:49:26.562Z,33.93
2019-02-05T01:51:57.138Z,32.93
2019-02-05T01:54:26.897Z,32.70
2019-02-05T01:56:56.683Z,28.40
2019-02-05T01:59:27.748Z,29.10
2019-02-05T02:01:57.625Z,28.00
2019-02-05T02:04:27.542Z,28.23
2019-02-05T02:06:57.731Z,35.73
2019-02-05T02:09:27.594Z,34.97
2019-02-05T02:11:57.623Z,32.33
2019-02-05T02:14:27.589Z,30.00
2019-02-05T02:16:57.676Z,27.00
2019-02-05T02:19:28.079Z,25.40
2019-02-05T02:21:58.030Z,26.07
2019-02-05T02:24:27.948Z,25.33
2019-02-05T02:26:58.054Z,25.13
2019-02-05T02:29:28.012Z,24.90
2019-02-05T02:31:57.901Z,26.23
2019-02-05T02:34:27.894Z,27.37
2019-02-05T02:36:57.788Z,25.83
2019-02-05T02:39:27.665Z,24.50
2019-02-05T02:41:57.681Z,26.90
2019-02-05T02:44:27.546Z,25.73
2019-02-05T02:46:57.324Z,26.60
2019-02-05T02:49:27.274Z,25.77
2019-02-05T02:51:57.087Z,26.40
2019-02-05T02:54:26.959Z,26.03
2019-02-05T02:57:04.519Z,27.43
2019-02-05T02:59:28.405Z,27.43
2019-02-05T03:01:58.547Z,27.37
2019-02-05T03:04:28.484Z,26.47
2019-02-05T03:06:58.338Z,28.27
2019-02-05T03:09:28.178Z,31.23
2019-02-05T03:11:58.208Z,30.67
2019-02-05T03:14:28.513Z,30.70
2019-02-05T03:16:58.327Z,31.33
2019-02-05T03:19:28.577Z,33.03
2019-02-05T03:21:58.352Z,36.70
2019-02-05T03:24:28.185Z,37.10
2019-02-05T03:26:58.251Z,41.03
2019-02-05T03:29:28.229Z,42.03
2019-02-05T03:31:58.127Z,39.43
2019-02-05T03:34:29.933Z,41.33
2019-02-05T03:36:59.817Z,43.57
2019-02-05T03:39:29.808Z,42.67
2019-02-05T03:41:59.680Z,43.33
2019-02-05T03:44:29.547Z,39.30
2019-02-05T03:46:59.452Z,43.17
2019-02-05T03:49:30.438Z,40.80
2019-02-05T03:52:17.280Z,45.83
2019-02-05T03:55:23.119Z,46.53
2019-02-05T03:58:18.232Z,45.27
2019-02-05T04:01:31.571Z,41.33
2019-02-05T04:04:26.888Z,40.13
2019-02-05T04:07:33.049Z,40.07
2019-02-05T04:10:47.573Z,38.93
2019-02-05T04:13:52.692Z,39.47
2019-02-05T04:17:10.385Z,35.97
2019-02-05T04:20:29.765Z,29.70
2019-02-05T04:23:43.097Z,30.93
2019-02-05T04:26:53.652Z,32.23
2019-02-05T04:30:15.501Z,32.67
2019-02-05T04:33:26.381Z,34.30
2019-02-05T04:36:28.565Z,33.97
2019-02-05T04:39:45.062Z,39.20
2019-02-05T04:42:52.165Z,33.57
2019-02-05T04:45:52.962Z,35.60
2019-02-05T04:49:22.097Z,32.50
2019-02-05T04:52:41.992Z,33.17
2019-02-05T04:55:35.678Z,35.47
2019-02-05T04:58:43.267Z,34.03
2019-02-05T05:02:02.745Z,38.53
2019-02-05T05:05:28.687Z,52.13
2019-02-05T05:08:21.010Z,48.97
2019-02-05T05:10:50.906Z,53.03
2019-02-05T05:13:20.829Z,59.83
2019-02-05T05:15:51.120Z,50.87
2019-02-05T05:18:21.036Z,38.00
2019-02-05T05:20:50.964Z,82.70
2019-02-05T05:23:21.044Z,68.70
2019-02-05T05:25:50.914Z,87.77
2019-02-05T05:28:21.426Z,69.03
2019-02-05T05:30:52.539Z,71.10
2019-02-05T05:33:22.493Z,47.17
2019-02-05T05:35:52.299Z,49.40
2019-02-05T05:38:22.168Z,47.80
2019-02-05T05:40:52.034Z,44.80
2019-02-05T05:43:21.750Z,46.10
2019-02-05T05:45:51.807Z,46.10
2019-02-05T05:48:22.040Z,43.97
2019-02-05T05:50:51.899Z,45.10
2019-02-05T05:53:21.846Z,42.73
2019-02-05T05:55:51.792Z,40.10
2019-02-05T05:58:23.415Z,43.97
2019-02-05T06:00:53.544Z,44.67
2019-02-05T06:03:23.351Z,44.30
2019-02-05T06:05:53.393Z,43.07
2019-02-05T06:08:23.689Z,42.07
2019-02-05T06:10:53.932Z,39.60
2019-02-05T06:13:23.852Z,37.63
2019-02-05T06:15:53.958Z,40.10
2019-02-05T06:18:24.002Z,39.97
2019-02-05T06:20:53.945Z,38.63
2019-02-05T06:23:23.908Z,39.00
2019-02-05T06:25:53.812Z,37.47
2019-02-05T06:28:34.356Z,37.13
2019-02-05T06:30:55.075Z,36.63
2019-02-05T06:33:25.020Z,36.93
2019-02-05T06:35:54.988Z,36.97
2019-02-05T06:38:24.822Z,35.17
2019-02-05T06:40:54.664Z,37.40
2019-02-05T06:43:25.834Z,37.50
2019-02-05T06:45:55.906Z,38.87
2019-02-05T06:48:25.716Z,36.57
2019-02-05T06:50:56.917Z,37.07
2019-02-05T06:53:26.676Z,37.23
2019-02-05T06:55:56.504Z,53.20
2019-02-05T06:58:26.570Z,37.07
2019-02-05T07:00:56.750Z,35.20
2019-02-05T07:03:26.570Z,36.63
2019-02-05T07:05:56.429Z,33.43
2019-02-05T07:08:26.386Z,34.70
2019-02-05T07:10:56.421Z,33.97
2019-02-05T07:13:26.488Z,33.60
2019-02-05T07:15:56.721Z,35.80
2019-02-05T07:18:26.806Z,33.20
2019-02-05T07:20:56.704Z,32.93
2019-02-05T07:23:28.095Z,34.27
2019-02-05T07:25:58.114Z,32.47
2019-02-05T07:28:28.107Z,32.33
2019-02-05T07:30:58.273Z,35.43
2019-02-05T07:33:28.107Z,39.70
2019-02-05T07:35:57.933Z,32.00
2019-02-05T07:38:27.739Z,30.17
2019-02-05T07:40:57.909Z,31.20
2019-02-05T07:43:27.875Z,29.13
2019-02-05T07:45:57.980Z,31.93
2019-02-05T07:48:30.428Z,30.43
2019-02-05T07:50:59.797Z,30.03
2019-02-05T07:53:33.049Z,33.83
2019-02-05T07:56:01.505Z,32.57
2019-02-05T07:58:31.535Z,32.03
2019-02-05T08:01:01.499Z,33.40
2019-02-05T08:03:31.812Z,30.73
2019-02-05T08:06:01.664Z,27.40
2019-02-05T08:08:31.711Z,26.50
2019-02-05T08:11:01.744Z,26.00
2019-02-05T08:13:31.654Z,29.00
2019-02-05T08:16:01.648Z,24.00
2019-02-05T08:18:31.526Z,26.60
2019-02-05T08:21:02.598Z,29.60
2019-02-05T08:23:32.604Z,29.10
2019-02-05T08:26:02.312Z,26.13
2019-02-05T08:28:40.641Z,26.70
2019-02-05T08:31:04.114Z,23.80
2019-02-05T08:33:33.910Z,24.07
2019-02-05T08:36:03.872Z,24.23
2019-02-05T08:38:33.882Z,23.63
2019-02-05T08:41:03.659Z,24.33
2019-02-05T08:43:33.420Z,23.57
2019-02-05T08:46:03.499Z,24.53
2019-02-05T08:48:33.310Z,24.33
2019-02-05T08:51:03.173Z,24.77
2019-02-05T08:53:33.252Z,26.87
2019-02-05T08:56:03.261Z,22.67
2019-02-05T08:58:34.334Z,19.83
2019-02-05T09:01:04.521Z,19.50
2019-02-05T09:03:34.348Z,14.50
2019-02-05T09:06:04.112Z,14.97
2019-02-05T09:08:34.324Z,14.57
2019-02-05T09:11:04.405Z,13.00
2019-02-05T09:13:34.278Z,18.33
2019-02-05T09:16:04.156Z,12.23
2019-02-05T09:18:33.967Z,14.00
2019-02-05T09:21:03.815Z,13.13
2019-02-05T09:23:33.886Z,13.03
2019-02-05T09:26:03.814Z,13.50
2019-02-05T09:28:33.812Z,11.40
2019-02-05T09:31:03.782Z,12.03
2019-02-05T09:33:33.759Z,11.10
2019-02-05T09:36:03.636Z,11.47
2019-02-05T09:38:33.478Z,10.87
2019-02-05T09:41:03.308Z,10.87
2019-02-05T09:43:33.501Z,9.30
2019-02-05T09:46:03.632Z,10.40
2019-02-05T09:48:33.601Z,10.63
2019-02-05T09:51:03.630Z,11.43
2019-02-05T09:53:33.529Z,11.07
2019-02-05T09:56:03.624Z,10.30
2019-02-05T09:58:33.857Z,9.00
2019-02-05T10:01:05.357Z,10.73
2019-02-05T10:03:35.209Z,10.00
2019-02-05T10:06:05.075Z,9.47
2019-02-05T10:08:35.152Z,9.17
2019-02-05T10:11:05.568Z,9.53
2019-02-05T10:13:35.434Z,9.40
2019-02-05T10:16:05.910Z,9.93
2019-02-05T10:18:35.745Z,9.10
2019-02-05T10:21:06.115Z,9.83
2019-02-05T10:23:36.086Z,10.70
2019-02-05T10:26:06.624Z,11.63
2019-02-05T10:28:36.580Z,11.33
2019-02-05T10:31:06.534Z,11.07
2019-02-05T10:33:36.275Z,12.67
2019-02-05T10:36:06.922Z,11.53
2019-02-05T10:38:36.820Z,12.50
2019-02-05T10:41:07.116Z,12.53
2019-02-05T10:43:38.320Z,13.27
2019-02-05T10:46:09.929Z,11.43
2019-02-05T10:48:39.745Z,12.10
2019-02-05T10:51:09.902Z,11.73
2019-02-05T10:53:39.804Z,11.47
2019-02-05T10:56:09.811Z,10.97
2019-02-05T10:58:39.742Z,10.23
2019-02-05T11:01:09.577Z,10.47
2019-02-05T11:03:39.369Z,9.60
2019-02-05T11:06:09.123Z,9.30
2019-02-05T11:08:38.985Z,13.57
2019-02-05T11:11:08.803Z,14.43
2019-02-05T11:13:38.567Z,9.30
2019-02-05T11:16:08.449Z,9.37
2019-02-05T11:18:38.383Z,9.13
2019-02-05T11:21:08.345Z,10.33
2019-02-05T11:23:39.557Z,8.13
2019-02-05T11:26:09.534Z,8.73
2019-02-05T11:28:39.545Z,7.20
2019-02-05T11:31:10.715Z,7.50
2019-02-05T11:33:40.620Z,8.67
2019-02-05T11:36:11.978Z,9.07
2019-02-05T11:38:41.970Z,8.70
2019-02-05T11:41:13.709Z,7.80
2019-02-05T11:43:43.808Z,8.10
2019-02-05T11:46:13.732Z,8.63
2019-02-05T11:48:43.588Z,7.77
2019-02-05T11:51:13.543Z,8.60
2019-02-05T11:53:43.627Z,7.00
2019-02-05T11:56:13.343Z,8.47
2019-02-05T11:58:43.500Z,7.63
2019-02-05T12:01:20.617Z,8.27
2019-02-05T12:03:50.598Z,7.40
2019-02-05T12:06:20.608Z,7.27
2019-02-05T12:08:50.371Z,7.77
2019-02-05T12:11:20.408Z,9.40
2019-02-05T12:13:50.456Z,8.00
2019-02-05T12:16:20.425Z,7.47
2019-02-05T12:18:50.296Z,6.80
2019-02-05T12:21:20.095Z,9.17
2019-02-05T12:23:49.892Z,7.13
2019-02-05T12:26:19.740Z,7.60
2019-02-05T12:28:49.971Z,7.50
2019-02-05T12:31:19.921Z,9.83
2019-02-05T12:33:49.786Z,7.47
2019-02-05T12:36:19.603Z,6.43
2019-02-05T12:38:49.477Z,7.33
2019-02-05T12:41:19.449Z,8.20
2019-02-05T12:43:49.664Z,6.77
2019-02-05T12:46:19.613Z,6.67
2019-02-05T12:48:49.643Z,6.70
2019-02-05T12:51:19.840Z,7.17
2019-02-05T12:53:49.650Z,5.50
2019-02-05T12:56:19.647Z,6.07
2019-02-05T12:58:50.034Z,5.93
2019-02-05T13:01:19.911Z,8.20
2019-02-05T13:03:49.750Z,6.87
2019-02-05T13:06:19.736Z,7.07
2019-02-05T13:08:49.649Z,7.67
2019-02-05T13:11:19.733Z,8.57
2019-02-05T13:13:49.598Z,7.53
2019-02-05T13:16:19.632Z,6.93
2019-02-05T13:18:51.889Z,8.00
2019-02-05T13:21:21.288Z,7.40
2019-02-05T13:23:51.006Z,7.13
2019-02-05T13:26:20.874Z,8.03
2019-02-05T13:28:50.730Z,7.57
2019-02-05T13:31:20.531Z,7.57
2019-02-05T13:33:50.392Z,8.80
2019-02-05T13:36:22.643Z,7.70
2019-02-05T13:38:53.557Z,8.20
2019-02-05T13:41:24.847Z,7.33
2019-02-05T13:43:54.758Z,9.43
2019-02-05T13:46:24.549Z,6.93
2019-02-05T13:48:54.415Z,7.57
2019-02-05T13:51:24.271Z,7.67
2019-02-05T13:53:54.747Z,7.00
2019-02-05T13:56:26.612Z,7.10
2019-02-05T13:58:56.518Z,6.80
2019-02-05T14:01:26.750Z,6.57
2019-02-05T14:03:56.958Z,6.23
2019-02-05T14:06:26.904Z,6.60
2019-02-05T14:08:57.001Z,7.20
2019-02-05T14:11:26.911Z,6.97
2019-02-05T14:13:58.075Z,5.57
2019-02-05T14:16:28.092Z,6.37
2019-02-05T14:18:57.959Z,5.20
2019-02-05T14:21:27.941Z,6.70
2019-02-05T14:23:57.912Z,5.87
2019-02-05T14:26:27.811Z,6.30
2019-02-05T14:28:57.782Z,6.40
2019-02-05T14:31:31.327Z,5.80
2019-02-05T14:33:59.572Z,5.60
2019-02-05T14:36:29.834Z,5.57
2019-02-05T14:38:59.889Z,6.50
2019-02-05T14:41:29.779Z,6.40
2019-02-05T14:43:59.652Z,5.53
2019-02-05T14:46:29.492Z,5.90
2019-02-05T14:48:59.423Z,5.30
2019-02-05T14:51:29.911Z,6.50
2019-02-05T14:54:00.037Z,6.50
2019-02-05T14:56:30.914Z,7.10
2019-02-05T14:59:00.858Z,5.40
2019-02-05T15:01:30.749Z,5.87
2019-02-05T15:04:00.598Z,7.10
2019-02-05T15:06:30.520Z,6.23
2019-02-05T15:09:00.416Z,7.77
2019-02-05T15:11:30.205Z,6.57
2019-02-05T15:14:00.188Z,7.57
2019-02-05T15:16:30.366Z,7.10
2019-02-05T15:19:00.489Z,14.47
2019-02-05T15:21:30.464Z,12.43
2019-02-05T15:24:00.219Z,7.90
2019-02-05T15:26:30.148Z,9.93
2019-02-05T15:29:00.175Z,14.03
2019-02-05T15:31:30.047Z,11.37
2019-02-05T15:34:05.771Z,15.50
2019-02-05T15:36:37.654Z,11.53
2019-02-05T15:39:14.088Z,12.63
2019-02-05T15:41:44.516Z,10.43
2019-02-05T15:44:14.811Z,10.20
2019-02-05T15:46:44.812Z,11.50
2019-02-05T15:49:14.619Z,13.83
2019-02-05T15:51:44.569Z,11.77
2019-02-05T15:54:14.475Z,11.37
2019-02-05T15:56:44.375Z,12.17
2019-02-05T15:59:14.292Z,12.57
2019-02-05T16:01:44.327Z,12.00
2019-02-05T16:04:14.302Z,12.33
2019-02-05T16:06:44.216Z,12.27
2019-02-05T16:09:14.406Z,19.63
2019-02-05T16:11:44.289Z,12.43
2019-02-05T16:14:14.386Z,12.43
2019-02-05T16:16:44.628Z,9.87
2019-02-05T16:19:15.614Z,10.47
2019-02-05T16:21:45.587Z,9.57
2019-02-05T16:24:15.514Z,10.07
2019-02-05T16:26:45.916Z,9.77
2019-02-05T16:29:15.868Z,9.60
2019-02-05T16:31:45.793Z,9.23
2019-02-05T16:34:15.766Z,9.67
2019-02-05T16:36:48.550Z,10.47
2019-02-05T16:39:17.391Z,9.57
2019-02-05T16:41:47.561Z,9.90
2019-02-05T16:44:18.648Z,10.20
2019-02-05T16:46:48.693Z,10.87
2019-02-05T16:49:18.635Z,10.93
2019-02-05T16:51:48.391Z,10.00
2019-02-05T16:54:18.190Z,9.37
2019-02-05T16:56:48.149Z,10.30
2019-02-05T16:59:17.960Z,10.70
2019-02-05T17:01:48.058Z,10.67
2019-02-05T17:04:19.224Z,10.67
2019-02-05T17:06:49.466Z,11.60
2019-02-05T17:09:20.692Z,11.07
2019-02-05T17:11:52.151Z,10.43
2019-02-05T17:14:22.040Z,12.07
2019-02-05T17:16:52.006Z,11.37
2019-02-05T17:19:22.468Z,11.33
2019-02-05T17:21:52.403Z,12.47
2019-02-05T17:24:22.219Z,11.70
2019-02-05T17:26:51.996Z,12.90
2019-02-05T17:29:22.068Z,12.27
2019-02-05T17:31:52.117Z,12.13
2019-02-05T17:34:21.998Z,11.60
2019-02-05T17:36:51.947Z,11.87
2019-02-05T17:39:21.794Z,12.17
2019-02-05T17:41:51.971Z,13.50
2019-02-05T17:44:21.873Z,11.80
2019-02-05T17:46:51.811Z,12.63
2019-02-05T17:49:21.814Z,11.70
2019-02-05T17:51:52.362Z,11.80
2019-02-05T17:54:22.401Z,11.73
2019-02-05T17:56:52.378Z,12.53
2019-02-05T17:59:22.536Z,12.63
2019-02-05T18:01:52.695Z,12.70
2019-02-05T18:04:22.539Z,12.70
2019-02-05T18:06:52.539Z,13.00
2019-02-05T18:09:22.414Z,12.60
2019-02-05T18:11:52.405Z,15.90
2019-02-05T18:14:22.210Z,12.27
2019-02-05T18:16:53.455Z,13.27
2019-02-05T18:19:23.371Z,14.07
2019-02-05T18:21:53.284Z,12.37
2019-02-05T18:24:23.224Z,14.27
2019-02-05T18:26:53.219Z,13.70
2019-02-05T18:29:23.008Z,12.83
2019-02-05T18:31:52.859Z,14.60
2019-02-05T18:34:23.093Z,13.67
2019-02-05T18:36:53.129Z,13.87
2019-02-05T18:39:23.030Z,15.73
2019-02-05T18:41:53.255Z,16.00
2019-02-05T18:44:23.088Z,15.60
2019-02-05T18:46:53.118Z,16.10
2019-02-05T18:49:22.979Z,14.83
2019-02-05T18:51:52.829Z,14.60
2019-02-05T18:54:22.768Z,17.20
2019-02-05T18:56:52.611Z,15.00
2019-02-05T18:59:22.372Z,17.30
2019-02-05T19:01:52.605Z,16.33
2019-02-05T19:04:22.688Z,18.50
2019-02-05T19:06:52.693Z,15.90
2019-02-05T19:09:22.703Z,14.27
2019-02-05T19:11:52.533Z,13.20
2019-02-05T19:14:23.270Z,16.57
2019-02-05T19:16:53.682Z,14.17
2019-02-05T19:19:23.512Z,12.80
2019-02-05T19:21:53.327Z,14.63
2019-02-05T19:24:36.441Z,14.97
2019-02-05T19:27:06.353Z,14.53
2019-02-05T19:29:36.493Z,15.67
2019-02-05T19:32:06.584Z,13.97
2019-02-05T19:34:36.486Z,13.03
2019-02-05T19:37:06.686Z,15.13
2019-02-05T19:39:37.823Z,15.37
2019-02-05T19:42:09.188Z,17.53
2019-02-05T19:44:40.721Z,16.33
2019-02-05T19:47:19.597Z,15.00
2019-02-05T19:49:53.286Z,13.43
2019-02-05T19:52:23.299Z,15.53
2019-02-05T19:54:53.189Z,16.23
2019-02-05T19:57:23.169Z,15.60
2019-02-05T19:59:53.655Z,15.83
2019-02-05T20:02:23.433Z,16.60
2019-02-05T20:04:53.457Z,15.77
2019-02-05T20:07:23.413Z,16.10
2019-02-05T20:09:53.281Z,17.10
2019-02-05T20:12:23.208Z,15.77
2019-02-05T20:14:54.359Z,15.43
2019-02-05T20:17:25.539Z,14.37
2019-02-05T20:19:55.493Z,17.77
2019-02-05T20:22:25.412Z,15.27
2019-02-05T20:24:55.402Z,16.53
2019-02-05T20:27:27.729Z,15.97
2019-02-05T20:29:57.747Z,15.83
2019-02-05T20:32:28.262Z,15.10
2019-02-05T20:34:58.091Z,16.00
2019-02-05T20:37:28.266Z,16.23
2019-02-05T20:39:58.519Z,15.57
2019-02-05T20:42:28.777Z,16.20
2019-02-05T20:44:59.025Z,16.27
2019-02-05T20:47:29.006Z,15.77
2019-02-05T20:49:58.903Z,15.60
2019-02-05T20:52:29.006Z,14.07
2019-02-05T20:54:58.846Z,14.93
2019-02-05T20:57:29.816Z,14.97
2019-02-05T20:59:59.833Z,15.93
2019-02-05T21:02:29.647Z,14.63
2019-02-05T21:04:59.582Z,14.17
2019-02-05T21:07:29.674Z,13.60
2019-02-05T21:09:59.565Z,14.07
2019-02-05T21:12:30.657Z,14.07
2019-02-05T21:15:00.562Z,13.13
2019-02-05T21:17:30.342Z,13.63
2019-02-05T21:20:00.345Z,13.97
2019-02-05T21:22:30.238Z,14.10
2019-02-05T21:25:00.128Z,13.60
2019-02-05T21:27:30.672Z,13.90
2019-02-05T21:30:00.662Z,14.10
2019-02-05T21:32:30.563Z,13.33
2019-02-05T21:35:00.437Z,13.77
2019-02-05T21:37:30.466Z,13.80
2019-02-05T21:40:02.530Z,13.93
2019-02-05T21:42:32.010Z,14.47
2019-02-05T21:45:01.894Z,13.77
2019-02-05T21:47:33.273Z,13.83
2019-02-05T21:50:03.495Z,14.40
2019-02-05T21:52:33.409Z,13.13
2019-02-05T21:55:03.412Z,13.73
2019-02-05T21:57:33.292Z,13.20
2019-02-05T22:00:11.717Z,15.20
2019-02-05T22:02:41.757Z,14.13
2019-02-05T22:05:11.916Z,15.43
2019-02-05T22:07:41.921Z,14.60
2019-02-05T22:10:12.082Z,14.20
2019-02-05T22:12:42.253Z,14.57
2019-02-05T22:15:13.287Z,14.90
2019-02-05T22:17:43.356Z,14.37
2019-02-05T22:20:15.821Z,13.53
2019-02-05T22:22:46.951Z,14.67
2019-02-05T22:25:22.312Z,15.47
2019-02-05T22:27:52.236Z,14.13
2019-02-05T22:30:32.406Z,14.10
2019-02-05T22:33:02.717Z,14.83
2019-02-05T22:35:32.600Z,15.13
2019-02-05T22:38:02.488Z,15.47
2019-02-05T22:40:32.380Z,14.30
2019-02-05T22:43:02.747Z,14.73
2019-02-05T22:45:32.847Z,13.40
2019-02-05T22:48:03.451Z,14.00
2019-02-05T22:50:33.938Z,13.77
2019-02-05T22:53:04.183Z,13.87
2019-02-05T22:55:34.242Z,13.80
2019-02-05T22:58:04.387Z,13.73
2019-02-05T23:00:52.176Z,12.43
2019-02-05T23:03:25.939Z,12.80
2019-02-05T23:06:29.306Z,14.00
2019-02-05T23:09:15.152Z,12.77
2019-02-05T23:12:20.913Z,13.27
2019-02-05T23:14:54.686Z,13.60
2019-02-05T23:17:24.729Z,13.00
2019-02-05T23:19:54.664Z,14.37
2019-02-05T23:22:24.642Z,12.30
2019-02-05T23:24:54.903Z,12.77
2019-02-05T23:27:25.344Z,13.20
2019-02-05T23:29:55.128Z,13.77
2019-02-05T23:32:24.860Z,14.40
2019-02-05T23:35:02.401Z,13.77
2019-02-05T23:37:27.054Z,14.13
2019-02-05T23:39:56.832Z,14.20
2019-02-05T23:42:26.783Z,11.63
2019-02-05T23:44:56.768Z,14.90
2019-02-05T23:47:26.522Z,13.57
2019-02-05T23:49:56.446Z,13.43
2019-02-05T23:52:26.317Z,13.97
2019-02-05T23:54:56.239Z,12.93
2019-02-05T23:57:26.415Z,12.87
2019-02-05T23:59:56.392Z,13.83
